Time;durP1;ratioP1;P1;durP2;ratioP2;P2;SDS_P1;SDS_P2;PMS_P1;PMS_P2;Temp;Humidity;BMP_temperature;BMP_pressure;BME280_temperature;BME280_humidity;BME280_pressure;Samples;Min_cycle;Max_cycle;Signal;HPM_P1;HPM_P2
2021/06/13 00:04:04;;;;;;;1.67;1.57;;;;;;;15.34;84.71;99735.09;10545023;28;20217;-79
2021/06/13 00:09:23;;;;;;;1.60;1.50;;;;;;;15.23;85.42;99737.19;10528086;28;20167;-79
2021/06/13 00:14:43;;;;;;;5.80;1.67;;;;;;;15.15;86.63;99732.91;10544351;28;20676;-80
2021/06/13 00:20:11;;;;;;;2.50;1.63;;;;;;;14.88;88.49;99733.22;10529065;28;20177;-80
2021/06/13 00:25:30;;;;;;;3.20;1.90;;;;;;;14.86;88.69;99746.72;10542804;28;20215;-78
2021/06/13 00:30:49;;;;;;;1.53;1.27;;;;;;;14.69;89.59;99755.97;10528803;28;20182;-79
2021/06/13 00:36:08;;;;;;;2.10;1.33;;;;;;;14.63;90.15;99752.88;10543073;28;20241;-76
2021/06/13 00:41:27;;;;;;;1.43;1.33;;;;;;;14.53;92.11;99755.75;10542355;28;20174;-79
2021/06/13 00:46:46;;;;;;;2.10;1.70;;;;;;;14.34;94.40;99772.13;10543417;28;20167;-78
2021/06/13 00:52:06;;;;;;;2.23;2.03;;;;;;;14.18;97.49;99775.41;10543044;28;20202;-77
2021/06/13 00:57:25;;;;;;;6.07;2.63;;;;;;;13.98;100.00;99763.22;10541051;28;20206;-76
2021/06/13 01:02:45;;;;;;;2.07;1.87;;;;;;;13.96;100.00;99785.00;10527411;28;20182;-77
2021/06/13 01:08:20;;;;;;;2.57;2.37;;;;;;;13.87;100.00;99778.31;10541054;28;20189;-76
2021/06/13 01:13:57;;;;;;;2.20;2.10;;;;;;;13.84;100.00;99785.47;10541968;28;20218;-75
2021/06/13 01:19:29;;;;;;;2.10;1.90;;;;;;;13.82;100.00;99785.06;10526477;28;20632;-75
2021/06/13 01:25:06;;;;;;;4.07;2.70;;;;;;;13.51;100.00;99784.44;10525162;28;20170;-76
2021/06/13 01:30:28;;;;;;;2.10;1.73;;;;;;;13.37;100.00;99787.28;10541585;28;20178;-76
2021/06/13 01:35:49;;;;;;;3.63;1.60;;;;;;;13.36;100.00;99793.97;10540838;28;20233;-77
2021/06/13 01:41:11;;;;;;;4.17;1.97;;;;;;;13.30;100.00;99792.81;10539938;28;20166;-76
2021/06/13 01:46:34;;;;;;;1.43;1.30;;;;;;;13.20;100.00;99794.44;10525602;28;20177;-78
2021/06/13 01:51:53;;;;;;;2.37;2.27;;;;;;;13.23;100.00;99792.84;10525442;28;20178;-79
2021/06/13 01:57:13;;;;;;;3.80;2.00;;;;;;;13.07;100.00;99793.28;10538726;28;20205;-79
2021/06/13 02:02:33;;;;;;;3.10;1.77;;;;;;;12.95;100.00;99803.97;10540367;28;20642;-78
2021/06/13 02:07:54;;;;;;;3.20;2.20;;;;;;;12.80;100.00;99825.25;10538655;28;20260;-79
2021/06/13 02:13:15;;;;;;;1.80;1.70;;;;;;;12.74;100.00;99826.06;10540050;28;20170;-77
2021/06/13 02:18:35;;;;;;;1.90;1.73;;;;;;;12.81;100.00;99826.03;10539936;28;20189;-76
2021/06/13 02:23:56;;;;;;;1.70;1.60;;;;;;;12.57;100.00;99812.25;10537835;28;20203;-77
2021/06/13 02:29:16;;;;;;;1.27;1.17;;;;;;;12.44;100.00;99820.13;10524216;28;20625;-78
2021/06/13 02:34:38;;;;;;;3.00;2.23;;;;;;;12.37;100.00;99828.41;10523519;28;20300;-76
2021/06/13 02:39:57;;;;;;;4.07;2.30;;;;;;;12.32;100.00;99820.53;10538020;28;20169;-78
2021/06/13 02:45:20;;;;;;;2.63;1.60;;;;;;;12.26;100.00;99837.84;10538124;28;20174;-77
2021/06/13 02:50:39;;;;;;;1.90;1.60;;;;;;;12.18;100.00;99848.09;10539104;28;20190;-76
2021/06/13 02:56:08;;;;;;;5.33;1.93;;;;;;;12.04;100.00;99845.28;10531195;28;20209;-76
2021/06/13 03:01:27;;;;;;;2.03;1.87;;;;;;;11.92;100.00;99847.63;10538826;28;20174;-76
2021/06/13 03:06:52;;;;;;;1.47;1.37;;;;;;;11.83;100.00;99851.94;10538813;28;20170;-76
2021/06/13 03:12:14;;;;;;;2.83;1.73;;;;;;;11.89;100.00;99864.16;10537315;28;20217;-76
2021/06/13 03:17:37;;;;;;;1.97;1.27;;;;;;;12.01;100.00;99861.84;10538032;28;20202;-76
2021/06/13 03:22:57;;;;;;;2.43;1.77;;;;;;;11.82;100.00;99873.22;10537072;28;20178;-76
2021/06/13 03:28:18;;;;;;;1.63;1.43;;;;;;;11.61;100.00;99873.09;10538314;28;20182;-75
2021/06/13 03:33:38;;;;;;;1.83;1.73;;;;;;;11.63;100.00;99879.03;10522486;28;20736;-76
2021/06/13 03:39:00;;;;;;;4.60;2.40;;;;;;;11.71;100.00;99886.16;10544718;28;20170;-76
2021/06/13 03:44:20;;;;;;;3.00;2.07;;;;;;;11.90;100.00;99876.78;10544960;28;20197;-76
2021/06/13 03:49:39;;;;;;;2.27;1.83;;;;;;;11.75;100.00;99891.69;10545565;28;20178;-76
2021/06/13 03:54:58;;;;;;;1.77;1.67;;;;;;;11.58;100.00;99897.91;10544247;28;20257;-77
2021/06/13 04:00:17;;;;;;;2.80;2.47;;;;;;;11.57;100.00;99899.06;10544036;28;20177;-76
2021/06/13 04:05:39;;;;;;;2.33;1.93;;;;;;;11.59;100.00;99908.53;10544993;28;20260;-76
2021/06/13 04:10:58;;;;;;;3.53;1.33;;;;;;;11.63;100.00;99914.09;10543419;28;20177;-75
2021/06/13 04:16:20;;;;;;;2.20;2.10;;;;;;;11.92;100.00;99916.56;10544347;28;20209;-77
2021/06/13 04:21:39;;;;;;;1.80;1.70;;;;;;;12.16;100.00;99922.19;10544426;28;20174;-77
2021/06/13 04:26:59;;;;;;;2.10;1.90;;;;;;;12.23;100.00;99929.69;10542831;28;20174;-75
2021/06/13 04:32:18;;;;;;;1.73;1.63;;;;;;;12.33;100.00;99937.19;10543982;28;20190;-76
2021/06/13 04:37:37;;;;;;;1.90;1.63;;;;;;;12.46;100.00;99936.44;10543215;28;20206;-76
2021/06/13 04:42:56;;;;;;;1.83;1.47;;;;;;;12.59;100.00;99945.94;10527839;28;20198;-77
2021/06/13 04:48:17;;;;;;;2.50;1.90;;;;;;;12.71;100.00;99948.31;10542753;28;20182;-77
2021/06/13 04:53:54;;;;;;;1.67;1.57;;;;;;;12.93;100.00;99944.41;10541737;28;20179;-76
2021/06/13 04:59:13;;;;;;;1.50;1.33;;;;;;;13.14;100.00;99961.00;10542981;28;20537;-76
2021/06/13 05:04:32;;;;;;;2.37;2.20;;;;;;;13.19;100.00;99966.13;10542594;28;20174;-79
2021/06/13 05:09:51;;;;;;;3.27;1.57;;;;;;;13.13;100.00;99968.50;10541285;28;20174;-77
2021/06/13 05:15:10;;;;;;;2.53;2.33;;;;;;;13.35;100.00;99975.63;10541975;28;20240;-76
2021/06/13 05:20:29;;;;;;;7.50;2.33;;;;;;;13.59;100.00;99972.81;10526600;28;20182;-79
2021/06/13 05:25:50;;;;;;;2.47;2.27;;;;;;;14.08;100.00;99972.66;10540436;28;20173;-79
2021/06/13 05:31:09;;;;;;;5.67;2.63;;;;;;;14.55;100.00;99988.69;10541717;28;20518;-79
2021/06/13 05:36:28;;;;;;;12.33;2.00;;;;;;;14.89;100.00;99984.94;10540850;28;20222;-77
2021/06/13 05:41:47;;;;;;;2.83;1.50;;;;;;;15.07;100.00;99995.91;10538905;28;20544;-77
2021/06/13 05:47:06;;;;;;;4.33;1.90;;;;;;;15.37;100.00;100002.44;10541148;28;20253;-78
2021/06/13 05:52:25;;;;;;;3.33;1.80;;;;;;;15.74;100.00;100002.47;10525340;28;20166;-78
2021/06/13 05:57:45;;;;;;;2.90;1.53;;;;;;;16.13;93.23;100009.19;10538817;28;20193;-79
2021/06/13 06:03:06;;;;;;;1.70;1.60;;;;;;;16.19;93.69;100011.09;10525009;28;20182;-79
2021/06/13 06:08:27;;;;;;;1.83;1.60;;;;;;;16.32;92.81;100030.78;10523585;28;20256;-76
2021/06/13 06:13:52;;;;;;;3.20;1.60;;;;;;;16.54;87.46;100034.91;10540084;28;20205;-79
2021/06/13 06:19:12;;;;;;;2.80;1.83;;;;;;;16.71;83.82;100034.69;10540043;28;20625;-79
2021/06/13 06:24:31;;;;;;;2.27;1.60;;;;;;;17.12;67.63;100036.06;10538523;28;20181;-79
2021/06/13 06:29:50;;;;;;;1.90;1.80;;;;;;;17.28;64.64;100039.06;10532406;28;20178;-79
2021/06/13 06:35:11;;;;;;;1.60;1.50;;;;;;;17.48;61.91;100047.47;10538906;28;20715;-79
2021/06/13 06:40:30;;;;;;;3.67;2.43;;;;;;;17.94;61.34;100056.59;10537786;28;20178;-79
2021/06/13 06:45:49;;;;;;;1.80;1.43;;;;;;;18.05;59.96;100054.41;10539181;28;20178;-76
2021/06/13 06:51:08;;;;;;;1.50;1.40;;;;;;;18.41;57.29;100058.91;10539082;28;20178;-76
2021/06/13 06:56:28;;;;;;;3.50;2.60;;;;;;;18.52;57.01;100060.28;10537362;28;20206;-77
2021/06/13 07:01:47;;;;;;;2.43;1.53;;;;;;;19.09;54.91;100065.44;10538743;28;20253;-76
2021/06/13 07:07:06;;;;;;;10.13;1.53;;;;;;;19.22;52.18;100069.16;10538867;28;20182;-77
2021/06/13 07:12:26;;;;;;;3.40;1.80;;;;;;;19.37;53.46;100069.19;10545212;28;20186;-76
2021/06/13 07:17:45;;;;;;;1.43;1.33;;;;;;;19.94;51.77;100076.97;10530870;28;20205;-79
2021/06/13 07:23:04;;;;;;;2.30;1.77;;;;;;;20.00;49.48;100080.81;10530203;28;20178;-78
2021/06/13 07:28:23;;;;;;;1.80;1.60;;;;;;;20.47;49.08;100077.91;10531254;28;20265;-79
2021/06/13 07:33:42;;;;;;;4.27;1.93;;;;;;;20.74;47.25;100075.56;10546067;28;20668;-77
2021/06/13 07:39:04;;;;;;;3.40;1.83;;;;;;;20.83;44.86;100075.72;10544997;28;20706;-79
2021/06/13 07:44:23;;;;;;;2.13;1.30;;;;;;;20.13;48.15;100085.25;10546049;28;20660;-79
2021/06/13 07:49:41;;;;;;;3.73;1.37;;;;;;;20.87;46.73;100084.00;10530327;28;20252;-77
2021/06/13 07:55:01;;;;;;;1.60;1.40;;;;;;;21.54;46.07;100083.50;10528639;28;20209;-78
2021/06/13 08:00:22;;;;;;;2.17;1.20;;;;;;;22.18;44.53;100083.75;10529760;28;20190;-77
2021/06/13 08:05:43;;;;;;;3.27;1.73;;;;;;;22.79;43.10;100096.78;10545202;28;20175;-78
2021/06/13 08:11:04;;;;;;;3.10;1.70;;;;;;;22.84;40.80;100087.00;10543768;28;20170;-77
2021/06/13 08:16:23;;;;;;;2.97;1.67;;;;;;;22.39;45.48;100097.84;10544446;28;20219;-77
2021/06/13 08:21:43;;;;;;;3.00;1.93;;;;;;;22.60;42.41;100097.09;10543693;28;20173;-77
2021/06/13 08:27:02;;;;;;;1.53;1.43;;;;;;;23.49;41.99;100089.25;10543043;28;20198;-78
2021/06/13 08:32:21;;;;;;;1.50;1.40;;;;;;;23.78;40.34;100089.69;10542452;28;20257;-78
2021/06/13 08:37:41;;;;;;;2.20;1.57;;;;;;;23.87;39.31;100086.13;10501174;28;20206;-78
2021/06/13 08:43:01;;;;;;;4.50;1.73;;;;;;;24.24;41.63;100078.06;10501745;28;20175;-78
2021/06/13 08:48:20;;;;;;;5.23;1.87;;;;;;;24.01;39.36;100082.72;10486332;28;20182;-78
2021/06/13 08:53:44;;;;;;;2.73;2.40;;;;;;;20.72;44.87;100088.41;10500024;28;20621;-76
2021/06/13 08:59:03;;;;;;;1.40;1.13;;;;;;;19.20;49.65;100082.75;10501259;28;20213;-77
2021/06/13 09:04:22;;;;;;;3.13;1.80;;;;;;;19.41;53.97;100078.28;10485672;28;20183;-77
2021/06/13 09:09:41;;;;;;;5.23;1.80;;;;;;;20.57;48.09;100071.25;10498191;28;20257;-79
2021/06/13 09:15:00;;;;;;;1.60;1.50;;;;;;;20.69;47.50;100084.47;10484912;28;20252;-77
2021/06/13 09:20:23;;;;;;;2.37;1.80;;;;;;;22.66;43.49;100075.63;10485028;28;20643;-78
2021/06/13 09:25:44;;;;;;;1.93;1.20;;;;;;;23.23;46.39;100077.88;10498694;28;20254;-77
2021/06/13 09:31:05;;;;;;;6.80;1.73;;;;;;;20.89;47.48;100068.34;10484420;28;20669;-77
2021/06/13 09:36:30;;;;;;;1.93;1.70;;;;;;;21.64;43.30;100071.22;10483662;28;20226;-78
2021/06/13 09:41:50;;;;;;;2.90;1.47;;;;;;;22.46;42.97;100074.38;10483017;28;20694;-77
2021/06/13 09:47:10;;;;;;;2.23;2.03;;;;;;;21.92;43.71;100071.06;10498969;28;20187;-77
2021/06/13 09:52:29;;;;;;;1.87;1.17;;;;;;;22.58;41.06;100075.09;10498754;28;20205;-78
2021/06/13 09:58:04;;;;;;;2.90;1.50;;;;;;;21.77;42.90;100081.94;10482973;28;20202;-76
2021/06/13 10:03:29;;;;;;;2.70;1.67;;;;;;;22.65;42.08;100074.06;10498430;28;20178;-77
2021/06/13 10:08:49;;;;;;;1.53;1.43;;;;;;;24.58;40.66;100068.56;10495067;28;20281;-77
2021/06/13 10:14:12;;;;;;;2.03;1.60;;;;;;;24.13;40.27;100076.97;10497416;28;20670;-77
2021/06/13 10:19:41;;;;;;;1.93;1.70;;;;;;;23.03;38.83;100071.81;10492357;28;20199;-80
2021/06/13 10:25:03;;;;;;;3.00;1.27;;;;;;;24.78;37.41;100064.00;10499872;28;20648;-77
2021/06/13 10:30:22;;;;;;;1.83;1.37;;;;;;;25.23;36.68;100064.72;10539746;28;20348;-77
2021/06/13 10:35:41;;;;;;;1.67;1.57;;;;;;;25.79;32.31;100064.78;10534525;28;20234;-76
2021/06/13 10:41:03;;;;;;;1.93;1.57;;;;;;;25.83;32.45;100068.22;10538030;28;20178;-80
2021/06/13 10:46:27;;;;;;;2.57;1.77;;;;;;;25.83;33.89;100071.81;10538737;28;20628;-80
2021/06/13 10:51:46;;;;;;;3.10;1.50;;;;;;;26.12;32.88;100068.34;10539010;28;20577;-78
2021/06/13 10:57:05;;;;;;;5.20;1.80;;;;;;;26.83;31.47;100058.53;10537184;28;20197;-78
2021/06/13 11:02:27;;;;;;;4.07;1.60;;;;;;;27.00;31.01;100060.41;10538876;28;20177;-80
2021/06/13 11:07:56;;;;;;;1.87;1.50;;;;;;;26.43;29.51;100063.91;10537844;28;20170;-78
2021/06/13 11:13:23;;;;;;;1.73;1.63;;;;;;;26.89;32.80;100053.75;10538599;28;20174;-80
2021/06/13 11:18:45;;;;;;;5.60;1.50;;;;;;;27.00;30.84;100037.81;10537622;28;20182;-77
2021/06/13 11:24:04;;;;;;;12.57;1.77;;;;;;;27.23;29.53;100042.56;10537182;28;20277;-78
2021/06/13 11:29:49;;;;;;;2.17;1.97;;;;;;;26.32;32.85;100038.25;10538370;28;20174;-78
2021/06/13 11:35:34;;;;;;;2.03;1.57;;;;;;;27.53;31.88;100044.84;10562466;28;20678;-78
2021/06/13 11:40:59;;;;;;;1.60;1.50;;;;;;;27.04;30.65;100029.91;10563679;28;20169;-78
2021/06/13 11:46:45;;;;;;;3.87;1.70;;;;;;;25.86;34.67;100036.25;10579163;28;20185;-79
2021/06/13 11:52:06;;;;;;;3.57;2.50;;;;;;;25.16;31.76;100034.06;10564498;28;20568;-79
2021/06/13 11:57:25;;;;;;;3.20;2.20;;;;;;;24.99;33.27;100038.47;10581355;28;20597;-78
2021/06/13 12:02:44;;;;;;;3.27;1.97;;;;;;;25.38;35.65;100025.38;10587366;28;20165;-79
2021/06/13 12:08:04;;;;;;;2.50;2.30;;;;;;;25.94;31.70;100024.13;10585861;28;20218;-78
2021/06/13 12:13:27;;;;;;;2.37;1.80;;;;;;;24.84;33.34;100024.75;10571721;28;20251;-79
2021/06/13 12:19:04;;;;;;;5.83;1.53;;;;;;;25.08;31.82;100015.13;10571468;28;20616;-77
2021/06/13 12:29:45;;;;;;;1.70;1.60;;;;;;;28.01;31.34;100012.13;10586050;28;20193;-78
2021/06/13 12:35:10;;;;;;;4.10;2.17;;;;;;;27.56;32.24;100003.50;10584558;28;20229;-78
2021/06/13 12:40:37;;;;;;;2.17;1.97;;;;;;;28.14;30.53;99989.13;10569204;28;20174;-79
2021/06/13 12:45:57;;;;;;;1.33;1.23;;;;;;;28.38;28.67;99985.59;10585751;28;20177;-79
2021/06/13 12:51:24;;;;;;;2.50;2.30;;;;;;;28.30;28.70;99986.53;10570228;28;20609;-77
2021/06/13 12:56:44;;;;;;;1.60;1.37;;;;;;;28.74;28.48;99987.78;10583716;28;20213;-77
2021/06/13 13:02:09;;;;;;;1.93;1.40;;;;;;;29.92;28.20;99978.34;10585131;28;20245;-76
2021/06/13 13:07:29;;;;;;;2.43;1.70;;;;;;;27.51;29.50;99979.53;10584457;28;20647;-77
2021/06/13 13:12:56;;;;;;;1.67;1.20;;;;;;;27.46;28.44;99985.13;10584276;28;20181;-78
2021/06/13 13:18:17;;;;;;;3.30;1.63;;;;;;;27.55;30.27;99977.28;10568354;28;20288;-76
2021/06/13 13:23:45;;;;;;;2.03;1.93;;;;;;;28.98;27.64;99971.28;10582691;28;20181;-77
2021/06/13 13:29:04;;;;;;;2.07;1.53;;;;;;;28.26;28.17;99971.81;10568499;28;20174;-76
2021/06/13 13:34:33;;;;;;;1.93;1.37;;;;;;;26.98;31.69;99983.81;10567871;28;20225;-76
2021/06/13 13:40:11;;;;;;;1.50;1.30;;;;;;;27.94;29.79;99969.34;10582075;28;20181;-76
2021/06/13 13:45:33;;;;;;;3.23;1.60;;;;;;;29.74;27.53;99967.41;10582907;28;20551;-77
2021/06/13 13:51:00;;;;;;;3.00;1.07;;;;;;;28.44;27.57;99974.34;10581806;28;20538;-76
2021/06/13 13:56:21;;;;;;;1.77;1.43;;;;;;;28.91;28.71;99974.56;10580146;28;20662;-77
2021/06/13 14:01:40;;;;;;;2.30;1.10;;;;;;;29.85;27.47;99965.41;10582839;28;20561;-76
2021/06/13 14:06:59;;;;;;;2.00;1.80;;;;;;;29.67;28.05;99957.34;10582435;28;20558;-76
2021/06/13 14:12:18;;;;;;;1.70;1.60;;;;;;;30.96;25.46;99953.84;10580885;28;20169;-77
2021/06/13 14:17:37;;;;;;;2.13;1.93;;;;;;;30.65;26.46;99956.16;10580780;28;20197;-78
2021/06/13 14:22:56;;;;;;;2.03;1.83;;;;;;;30.72;26.85;99952.81;10580669;28;20189;-77
2021/06/13 14:28:15;;;;;;;1.40;1.30;;;;;;;30.73;25.33;99949.44;10580676;28;20181;-76
2021/06/13 14:33:35;;;;;;;1.73;1.63;;;;;;;32.30;24.39;99934.63;10565952;28;20271;-77
2021/06/13 14:38:54;;;;;;;1.40;1.10;;;;;;;31.13;24.13;99948.94;10563927;28;20201;-77
2021/06/13 14:44:13;;;;;;;3.20;1.90;;;;;;;32.30;23.73;99935.41;10565739;28;20193;-77
2021/06/13 14:49:32;;;;;;;2.33;1.50;;;;;;;32.21;22.91;99932.88;10531540;28;20178;-76
2021/06/13 14:54:52;;;;;;;1.73;1.30;;;;;;;32.24;23.60;99928.97;10513796;28;20270;-78
2021/06/13 15:00:12;;;;;;;2.37;2.10;;;;;;;31.50;24.08;99926.66;10538856;28;20178;-77
2021/06/13 15:05:31;;;;;;;2.97;1.70;;;;;;;30.63;25.41;99927.50;10523262;28;20178;-77
2021/06/13 15:10:50;;;;;;;3.40;1.87;;;;;;;30.84;24.56;99918.19;10537374;28;20178;-79
2021/06/13 15:16:09;;;;;;;2.03;1.80;;;;;;;30.45;27.54;99911.66;10522690;28;20209;-77
2021/06/13 15:21:30;;;;;;;2.87;1.37;;;;;;;31.04;25.60;99906.56;10535350;28;20178;-76
2021/06/13 15:26:50;;;;;;;4.03;1.40;;;;;;;29.84;24.29;99904.28;10536793;28;20245;-76
2021/06/13 15:32:10;;;;;;;1.63;1.53;;;;;;;30.07;26.28;99908.78;10528542;28;20182;-77
2021/06/13 15:37:31;;;;;;;2.17;1.30;;;;;;;30.83;25.27;99905.28;10545760;28;20304;-78
2021/06/13 15:42:50;;;;;;;1.60;1.20;;;;;;;30.92;25.22;99897.25;10538334;28;20166;-76
2021/06/13 15:48:10;;;;;;;1.50;1.40;;;;;;;30.25;26.42;99896.94;10545511;28;20555;-77
2021/06/13 15:53:30;;;;;;;2.03;1.30;;;;;;;29.46;26.74;99901.28;10544464;28;20186;-78
2021/06/13 15:58:52;;;;;;;2.07;1.50;;;;;;;28.73;28.71;99901.25;10530300;28;20607;-78
2021/06/13 16:04:11;;;;;;;1.87;1.70;;;;;;;29.74;26.41;99894.44;10545263;28;20185;-76
2021/06/13 16:09:30;;;;;;;2.80;1.93;;;;;;;29.44;29.60;99892.50;10528538;28;20170;-77
2021/06/13 16:14:49;;;;;;;2.17;2.00;;;;;;;29.92;26.70;99879.84;10543570;28;20205;-78
2021/06/13 16:20:08;;;;;;;1.57;1.07;;;;;;;30.01;27.27;99886.03;10544666;28;20174;-78
2021/06/13 16:25:28;;;;;;;2.73;1.60;;;;;;;29.81;25.60;99885.44;10543206;28;20170;-77
2021/06/13 16:30:47;;;;;;;1.30;1.20;;;;;;;29.62;27.38;99883.56;10544482;28;20174;-77
2021/06/13 16:36:06;;;;;;;1.63;1.40;;;;;;;29.62;25.90;99880.72;10543469;28;20248;-77
2021/06/13 16:41:26;;;;;;;2.60;1.53;;;;;;;29.60;27.08;99886.91;10541897;28;20680;-77
2021/06/13 16:46:46;;;;;;;1.37;1.27;;;;;;;29.28;26.09;99893.16;10543901;28;20253;-76
2021/06/13 16:52:05;;;;;;;1.50;1.40;;;;;;;29.59;26.57;99901.59;10528192;28;20166;-77
2021/06/13 16:57:27;;;;;;;1.60;1.50;;;;;;;29.01;26.36;99893.75;10526386;28;20281;-78
2021/06/13 17:02:46;;;;;;;2.13;1.60;;;;;;;28.93;27.90;99889.06;10542926;28;20174;-77
2021/06/13 17:08:06;;;;;;;2.00;1.23;;;;;;;29.77;27.60;99886.97;10526343;28;20269;-76
2021/06/13 17:13:26;;;;;;;1.40;1.30;;;;;;;30.24;26.88;99889.72;10529286;28;21607;-77
2021/06/13 17:18:46;;;;;;;1.73;1.37;;;;;;;29.84;26.58;99889.31;10542354;28;20236;-77
2021/06/13 17:24:10;;;;;;;1.30;1.10;;;;;;;30.35;26.91;99887.66;10549737;28;20178;-75
2021/06/13 17:29:29;;;;;;;1.60;1.50;;;;;;;30.90;25.66;99899.06;10556334;28;20276;-77
2021/06/13 17:34:48;;;;;;;1.70;1.20;;;;;;;30.68;26.12;99890.56;10507063;28;20226;-77
2021/06/13 17:40:12;;;;;;;3.53;1.60;;;;;;;30.19;26.72;99891.25;10507618;28;20205;-75
2021/06/13 17:45:31;;;;;;;3.50;1.50;;;;;;;28.24;28.83;99895.09;10509811;28;20182;-76
2021/06/13 17:50:50;;;;;;;3.67;2.07;;;;;;;26.67;31.37;99893.19;10515533;28;20185;-75
2021/06/13 17:56:09;;;;;;;2.33;1.23;;;;;;;25.71;33.55;99896.47;10516766;28;20209;-76
2021/06/13 18:01:28;;;;;;;1.40;1.30;;;;;;;24.97;35.06;99888.91;10498796;28;20189;-76
2021/06/13 18:06:47;;;;;;;2.30;1.53;;;;;;;24.43;36.60;99901.66;10498377;28;20183;-74
2021/06/13 18:12:07;;;;;;;4.00;2.03;;;;;;;24.08;37.69;99899.66;10497664;28;20181;-74
2021/06/13 18:17:27;;;;;;;2.50;1.83;;;;;;;23.83;38.86;99897.19;10496841;28;20680;-75
2021/06/13 18:22:46;;;;;;;2.27;1.47;;;;;;;23.64;39.65;99898.38;10502194;28;20179;-75
2021/06/13 18:28:06;;;;;;;1.80;1.70;;;;;;;23.36;39.88;99900.38;10516196;28;20692;-75
2021/06/13 18:33:26;;;;;;;1.83;1.30;;;;;;;23.18;40.44;99896.00;10491764;28;20622;-75
2021/06/13 18:38:46;;;;;;;1.73;1.63;;;;;;;22.95;40.64;99894.50;10511015;28;20289;-74
2021/06/13 18:44:05;;;;;;;2.13;1.30;;;;;;;22.68;42.06;99899.22;10513169;28;20178;-77
2021/06/13 18:49:25;;;;;;;2.37;2.17;;;;;;;22.45;42.64;99902.53;10503633;28;20182;-77
2021/06/13 18:54:44;;;;;;;1.70;1.60;;;;;;;22.23;44.50;99907.34;10505189;28;20565;-75
2021/06/13 19:00:06;;;;;;;2.00;1.50;;;;;;;22.05;45.45;99910.03;10502359;28;20190;-76
2021/06/13 19:05:25;;;;;;;2.27;1.30;;;;;;;21.81;46.07;99919.34;10510290;28;20269;-77
2021/06/13 19:10:44;;;;;;;1.70;1.40;;;;;;;21.70;46.56;99916.91;10527404;28;20190;-75
2021/06/13 19:16:06;;;;;;;1.90;1.80;;;;;;;21.63;47.62;99912.81;10535917;28;20620;-76
2021/06/13 19:21:25;;;;;;;2.10;1.90;;;;;;;21.33;48.53;99907.81;10493999;28;20182;-76
2021/06/13 19:26:44;;;;;;;1.87;1.73;;;;;;;21.06;48.87;99910.34;10503760;28;20213;-77
2021/06/13 19:32:04;;;;;;;1.37;1.27;;;;;;;20.83;50.77;99910.69;10504841;28;20191;-76
2021/06/13 19:37:23;;;;;;;1.70;1.57;;;;;;;20.67;51.08;99912.78;10521330;28;20692;-78
2021/06/13 19:42:42;;;;;;;2.53;1.83;;;;;;;20.44;51.64;99916.66;10488033;28;20179;-76
2021/06/13 19:48:02;;;;;;;1.47;1.10;;;;;;;20.19;53.43;99911.03;10504356;28;20171;-77
2021/06/13 19:53:22;;;;;;;1.73;1.40;;;;;;;19.87;55.06;99912.38;10507428;28;20231;-77
2021/06/13 19:58:50;;;;;;;1.63;1.53;;;;;;;19.53;56.28;99909.31;10520027;28;20198;-76
2021/06/13 20:04:10;;;;;;;2.20;1.97;;;;;;;19.26;57.29;99915.16;10488400;28;20194;-77
2021/06/13 20:09:29;;;;;;;1.50;1.40;;;;;;;18.99;58.22;99907.50;10502986;28;20190;-77
2021/06/13 20:14:48;;;;;;;3.83;1.80;;;;;;;18.90;59.07;99907.31;10487712;28;20198;-76
2021/06/13 20:20:08;;;;;;;1.83;1.73;;;;;;;18.65;58.48;99912.69;10520217;28;20179;-75
2021/06/13 20:25:27;;;;;;;1.40;1.27;;;;;;;18.58;60.88;99907.28;10543281;28;20174;-77
2021/06/13 20:30:47;;;;;;;2.90;2.10;;;;;;;18.37;61.73;99902.19;10544414;28;20201;-75
2021/06/13 20:36:06;;;;;;;3.30;2.37;;;;;;;18.06;63.42;99902.84;10543467;28;20222;-75
2021/06/13 20:41:25;;;;;;;2.30;1.50;;;;;;;17.71;64.59;99911.88;10530147;28;20179;-75
2021/06/13 20:46:44;;;;;;;2.63;2.20;;;;;;;17.47;65.24;99920.72;10486674;28;20610;-75
2021/06/13 20:52:04;;;;;;;1.73;1.30;;;;;;;17.26;66.61;99907.94;10501743;28;20668;-76
2021/06/13 20:57:23;;;;;;;2.90;2.40;;;;;;;17.14;69.01;99913.31;10499955;28;20661;-75
2021/06/13 21:02:43;;;;;;;2.00;1.43;;;;;;;17.06;69.53;99926.53;10501275;28;20166;-75
2021/06/13 21:08:02;;;;;;;2.30;1.70;;;;;;;16.95;69.43;99925.94;10508383;28;20183;-76
2021/06/13 21:13:22;;;;;;;3.60;1.83;;;;;;;16.78;70.70;99918.66;10501833;28;20183;-75
2021/06/13 21:18:41;;;;;;;1.70;1.60;;;;;;;16.71;69.85;99925.53;10484922;28;20299;-75
2021/06/13 21:24:00;;;;;;;3.37;2.00;;;;;;;16.67;70.63;99919.22;10499204;28;20626;-75
2021/06/13 21:29:20;;;;;;;2.53;1.77;;;;;;;16.67;74.26;99913.66;10499756;28;20178;-75
2021/06/13 21:34:39;;;;;;;4.47;1.73;;;;;;;16.51;74.80;99925.44;10499491;28;20226;-75
2021/06/13 21:39:57;;;;;;;4.93;1.40;;;;;;;16.28;74.43;99925.28;10498119;28;20566;-75
2021/06/13 21:45:16;;;;;;;2.30;1.50;;;;;;;15.97;75.41;99934.81;10484079;28;20209;-75
2021/06/13 21:50:35;;;;;;;7.10;2.10;;;;;;;15.93;74.74;99930.50;10499232;28;20218;-75
2021/06/13 21:55:54;;;;;;;1.77;1.53;;;;;;;15.95;73.79;99927.34;10497595;28;20210;-76
2021/06/13 22:01:14;;;;;;;2.13;1.97;;;;;;;15.93;73.46;99930.50;10498791;28;20175;-75
2021/06/13 22:06:33;;;;;;;2.50;1.97;;;;;;;15.98;73.18;99935.63;10498790;28;20171;-75
2021/06/13 22:11:52;;;;;;;2.10;1.70;;;;;;;15.79;74.34;99936.22;10490020;28;20166;-75
2021/06/13 22:17:11;;;;;;;2.33;2.13;;;;;;;15.74;74.75;99924.78;10482865;28;20285;-75
2021/06/13 22:22:30;;;;;;;4.27;2.60;;;;;;;15.63;76.15;99936.00;10498458;28;20183;-75
2021/06/13 22:27:49;;;;;;;2.17;1.40;;;;;;;15.45;75.58;99940.94;10497189;28;20187;-75
2021/06/13 22:33:08;;;;;;;2.10;1.60;;;;;;;15.39;76.21;99939.00;10505368;28;20221;-75
2021/06/13 22:38:27;;;;;;;3.53;1.90;;;;;;;15.34;76.31;99937.50;10517386;28;20685;-74
2021/06/13 22:43:45;;;;;;;2.23;2.00;;;;;;;15.28;76.75;99928.03;10497803;28;20191;-74
2021/06/13 22:49:04;;;;;;;1.60;1.50;;;;;;;15.18;76.86;99936.41;10483239;28;20205;-76
2021/06/13 22:54:30;;;;;;;1.60;1.43;;;;;;;15.07;76.77;99926.59;10496319;28;20204;-75
2021/06/13 22:59:48;;;;;;;1.87;1.40;;;;;;;15.05;76.77;99926.22;10497492;28;20179;-77
2021/06/13 23:05:08;;;;;;;2.00;1.73;;;;;;;14.96;76.88;99923.94;10482146;28;20605;-77
2021/06/13 23:10:29;;;;;;;5.00;1.70;;;;;;;14.85;78.14;99917.69;10496070;28;20624;-77
2021/06/13 23:15:48;;;;;;;1.73;1.63;;;;;;;14.75;78.37;99924.06;10496805;28;20232;-77
2021/06/13 23:21:07;;;;;;;1.90;1.70;;;;;;;14.66;79.71;99917.44;10495085;28;20627;-76
2021/06/13 23:26:26;;;;;;;1.83;1.73;;;;;;;14.55;81.72;99916.69;10536313;28;20174;-77
2021/06/13 23:31:45;;;;;;;2.43;1.90;;;;;;;14.53;81.57;99919.88;10523247;28;20185;-76
2021/06/13 23:37:04;;;;;;;2.47;1.97;;;;;;;14.45;82.04;99910.03;10537562;28;20221;-76
2021/06/13 23:42:23;;;;;;;2.03;1.70;;;;;;;14.40;82.25;99917.97;10537110;28;20252;-77
2021/06/13 23:47:43;;;;;;;3.53;1.53;;;;;;;14.29;84.71;99911.75;10531790;28;20195;-76
2021/06/13 23:53:02;;;;;;;3.43;1.90;;;;;;;14.13;85.66;99919.72;10499817;28;20179;-77
2021/06/13 23:58:21;;;;;;;2.40;2.20;;;;;;;14.07;87.71;99914.97;10488158;28;20206;-76
